Time,TemperatureF,DewpointF,PressureIn,WindDirection,WindDirectionDegrees,WindSpeedMPH,WindSpeedGustMPH,Humidity,HourlyPrecipIn,Conditions,Clouds,dailyrainin,SolarRadiationWatts/m^2,SoftwareType,DateUTC
2013-01-13 00:10:00,-3.3,-10.9,30.36,NNE,30,1.0,1.0,69,0.00,,,0.00,0,Wunderground v.1.15,2013-01-13 07:10:00,
2013-01-13 00:30:00,-4.4,-10.3,30.36,NNE,30,0.0,0.0,75,0.00,,,0.00,0,Wunderground v.1.15,2013-01-13 07:30:00,
2013-01-13 00:40:00,-4.8,-10.2,30.36,NNE,30,0.0,0.0,77,0.00,,,0.00,0,Wunderground v.1.15,2013-01-13 07:40:00,
2013-01-13 00:50:00,-5.0,-10.1,30.37,NNE,30,0.0,0.0,78,0.00,,,0.00,0,Wunderground v.1.15,2013-01-13 07:50:00,
2013-01-13 01:00:00,-5.3,-10.7,30.37,North,355,1.0,1.0,77,0.00,,,0.00,0,Wunderground v.1.15,2013-01-13 08:00:00,
2013-01-13 01:10:00,-5.5,-10.6,30.37,North,355,0.0,1.0,78,0.00,,,0.00,0,Wunderground v.1.15,2013-01-13 08:10:00,
2013-01-13 01:20:00,-5.5,-10.6,30.37,North,355,0.0,0.0,78,0.00,,,0.00,0,Wunderground v.1.15,2013-01-13 08:20:00,
2013-01-13 01:30:00,-5.9,-11.2,30.37,North,355,0.0,0.0,77,0.00,,,0.00,0,Wunderground v.1.15,2013-01-13 08:30:00,
2013-01-13 01:50:00,-6.3,-11.6,30.38,North,355,0.0,0.0,77,0.00,,,0.00,0,Wunderground v.1.15,2013-01-13 08:50:00,
2013-01-13 02:10:00,-6.5,-11.6,30.39,North,355,0.0,0.0,78,0.00,,,0.00,0,Wunderground v.1.15,2013-01-13 09:10:00,
2013-01-13 02:20:00,-6.8,-12.1,30.40,North,355,0.0,3.0,77,0.00,,,0.00,0,Wunderground v.1.15,2013-01-13 09:20:00,
2013-01-13 02:40:00,-6.9,-12.2,30.40,North,355,0.0,0.0,77,0.00,,,0.00,0,Wunderground v.1.15,2013-01-13 09:40:00,
2013-01-13 02:50:00,-6.8,-12.4,30.40,North,355,0.0,0.0,76,0.00,,,0.00,0,Wunderground v.1.15,2013-01-13 09:50:00,
2013-01-13 03:20:00,-7.7,-13.5,30.40,North,355,0.0,1.0,75,0.00,,,0.00,0,Wunderground v.1.15,2013-01-13 10:20:00,
2013-01-13 03:30:00,-7.7,-13.3,30.40,North,355,0.0,0.0,76,0.00,,,0.00,0,Wunderground v.1.15,2013-01-13 10:30:00,
2013-01-13 03:50:00,-7.9,-13.7,30.39,North,355,0.0,0.0,75,0.00,,,0.00,0,Wunderground v.1.15,2013-01-13 10:50:00,
2013-01-13 04:00:00,-8.3,-14.1,30.38,North,355,0.0,0.0,75,0.00,,,0.00,0,Wunderground v.1.15,2013-01-13 11:00:00,
2013-01-13 04:11:00,-8.5,-14.0,30.39,North,355,0.0,1.0,76,0.00,,,0.00,0,Wunderground v.1.15,2013-01-13 11:11:00,
2013-01-13 04:30:00,-8.9,-14.4,30.39,North,355,0.0,0.0,76,0.00,,,0.00,0,Wunderground v.1.15,2013-01-13 11:30:00,
2013-01-13 04:41:00,-9.0,-14.5,30.39,North,355,0.0,0.0,76,0.00,,,0.00,0,Wunderground v.1.15,2013-01-13 11:41:00,
2013-01-13 05:00:00,-8.7,-14.0,30.40,NW,316,1.0,1.0,77,0.00,,,0.00,0,Wunderground v.1.15,2013-01-13 12:00:00,
2013-01-13 05:10:00,-7.9,-12.7,30.40,WNW,290,1.0,1.0,79,0.00,,,0.00,0,Wunderground v.1.15,2013-01-13 12:10:00,
2013-01-13 05:30:00,-7.1,-12.7,30.41,WNW,292,1.0,1.0,76,0.00,,,0.00,0,Wunderground v.1.15,2013-01-13 12:30:00,
2013-01-13 05:40:00,-8.2,-14.0,30.42,WNW,292,0.0,0.0,75,0.00,,,0.00,0,Wunderground v.1.15,2013-01-13 12:40:00,
2013-01-13 06:00:00,-8.9,-15.0,30.42,WNW,293,1.0,1.0,74,0.00,,,0.00,0,Wunderground v.1.15,2013-01-13 13:00:00,
2013-01-13 06:10:00,-9.0,-15.0,30.42,WNW,293,0.0,0.0,74,0.00,,,0.00,0,Wunderground v.1.15,2013-01-13 13:10:00,
2013-01-13 06:40:00,-8.6,-14.4,30.44,WNW,293,0.0,0.0,75,0.00,,,0.00,0,Wunderground v.1.15,2013-01-13 13:40:00,
2013-01-13 06:50:00,-9.3,-15.6,30.44,WNW,293,0.0,0.0,73,0.00,,,0.00,0,Wunderground v.1.15,2013-01-13 13:50:00,
2013-01-13 07:20:00,-9.8,-15.3,30.45,WNW,293,0.0,0.0,76,0.00,,,0.00,0,Wunderground v.1.15,2013-01-13 14:20:00,
2013-01-13 07:30:00,-10.1,-16.4,30.46,WNW,293,0.0,0.0,73,0.00,,,0.00,5,Wunderground v.1.15,2013-01-13 14:30:00,
2013-01-13 07:50:00,-7.5,-14.1,30.46,West,274,1.0,4.0,72,0.00,,,0.00,21,Wunderground v.1.15,2013-01-13 14:50:00,
2013-01-13 08:00:00,-5.1,-13.3,30.47,WSW,252,5.0,5.0,67,0.00,,,0.00,28,Wunderground v.1.15,2013-01-13 15:00:00,
2013-01-13 08:11:00,-5.6,-13.4,30.47,NNW,330,1.0,9.0,68,0.00,,,0.00,49,Wunderground v.1.15,2013-01-13 15:11:00,
2013-01-13 08:50:00,-5.2,-13.4,30.49,East,85,0.0,0.0,67,0.00,,,0.00,130,Wunderground v.1.15,2013-01-13 15:50:00,
2013-01-13 09:00:00,-4.4,-12.6,30.48,East,85,0.0,0.0,67,0.00,,,0.00,176,Wunderground v.1.15,2013-01-13 16:00:00,
2013-01-13 09:20:00,-2.8,-12.0,30.48,ENE,69,2.0,3.0,64,0.00,,,0.00,172,Wunderground v.1.15,2013-01-13 16:20:00,
2013-01-13 09:30:00,-2.6,-11.8,30.48,NNE,16,1.0,4.0,64,0.00,,,0.00,185,Wunderground v.1.15,2013-01-13 16:30:00,
2013-01-13 09:50:00,-2.2,-11.4,30.49,ESE,115,1.0,1.0,64,0.00,,,0.00,267,Wunderground v.1.15,2013-01-13 16:50:00,
2013-01-13 10:00:00,-1.4,-11.0,30.49,ESE,115,0.0,0.0,63,0.00,,,0.00,315,Wunderground v.1.15,2013-01-13 17:00:00,
2013-01-13 10:30:00,0.2,-10.4,30.48,ESE,103,2.0,3.0,60,0.00,,,0.00,446,Wunderground v.1.15,2013-01-13 17:30:00,
2013-01-13 10:40:00,0.6,-9.4,30.48,East,92,2.0,2.0,62,0.00,,,0.00,466,Wunderground v.1.15,2013-01-13 17:40:00,
2013-01-13 10:50:00,0.2,-8.5,30.48,East,83,3.0,3.0,66,0.00,,,0.00,457,Wunderground v.1.15,2013-01-13 17:50:00,
2013-01-13 11:00:00,0.8,-7.6,30.47,East,85,2.0,3.0,67,0.00,,,0.00,408,Wunderground v.1.15,2013-01-13 18:00:00,
2013-01-13 11:20:00,1.3,-8.1,30.46,East,87,2.0,2.0,64,0.00,,,0.00,346,Wunderground v.1.15,2013-01-13 18:20:00,
2013-01-13 11:40:00,3.0,-7.4,30.45,NE,54,0.0,0.0,61,0.00,,,0.00,325,Wunderground v.1.15,2013-01-13 18:40:00,
2013-01-13 12:00:00,1.9,-7.2,30.45,East,84,5.0,8.0,65,0.00,,,0.00,443,Wunderground v.1.15,2013-01-13 19:00:00,
2013-01-13 12:10:00,1.0,-7.1,30.45,ENE,70,7.0,7.0,68,0.00,,,0.00,448,Wunderground v.1.15,2013-01-13 19:10:00,
2013-01-13 12:30:00,0.6,-7.2,30.45,ENE,76,6.0,7.0,69,0.00,,,0.00,352,Wunderground v.1.15,2013-01-13 19:30:00,
2013-01-13 12:41:00,0.5,-6.7,30.45,East,94,6.0,9.0,71,0.00,,,0.00,327,Wunderground v.1.15,2013-01-13 19:41:00,
2013-01-13 12:50:00,0.0,-6.9,30.45,East,92,5.0,8.0,72,0.00,,,0.00,258,Wunderground v.1.15,2013-01-13 19:50:00,
2013-01-13 13:10:00,-0.5,-8.2,30.45,East,88,4.0,4.0,69,0.00,,,0.00,246,Wunderground v.1.15,2013-01-13 20:10:00,
2013-01-13 13:30:00,0.1,-8.0,30.45,East,81,3.0,3.0,68,0.00,,,0.00,246,Wunderground v.1.15,2013-01-13 20:30:00,
2013-01-13 14:00:00,1.1,-6.7,30.45,ENE,66,3.0,4.0,69,0.00,,,0.00,271,Wunderground v.1.15,2013-01-13 21:00:00,
2013-01-13 14:20:00,0.5,-6.7,30.46,East,100,5.0,6.0,71,0.00,,,0.00,207,Wunderground v.1.15,2013-01-13 21:20:00,
2013-01-13 14:40:00,-0.4,-7.0,30.47,East,100,5.0,7.0,73,0.00,,,0.00,176,Wunderground v.1.15,2013-01-13 21:40:00,
2013-01-13 15:00:00,-0.3,-7.2,30.49,ENE,78,4.0,4.0,72,0.00,,,0.00,169,Wunderground v.1.15,2013-01-13 22:00:00,
2013-01-13 15:20:00,0.8,-6.4,30.50,NE,51,1.0,1.0,71,0.00,,,0.00,109,Wunderground v.1.15,2013-01-13 22:20:00,
2013-01-13 15:40:00,0.5,-6.7,30.50,NE,49,0.0,0.0,71,0.00,,,0.00,81,Wunderground v.1.15,2013-01-13 22:40:00,
2013-01-13 16:00:00,-0.5,-7.1,30.50,NE,49,0.0,2.0,73,0.00,,,0.00,69,Wunderground v.1.15,2013-01-13 23:00:00,
2013-01-13 16:20:00,-0.8,-7.1,30.51,NE,49,0.0,0.0,74,0.00,,,0.00,46,Wunderground v.1.15,2013-01-13 23:20:00,
2013-01-13 16:40:00,-1.1,-7.4,30.51,NE,49,0.0,0.0,74,0.00,,,0.00,16,Wunderground v.1.15,2013-01-13 23:40:00,
2013-01-13 16:50:00,-1.0,-7.3,30.51,NE,49,0.0,0.0,74,0.00,,,0.00,9,Wunderground v.1.15,2013-01-13 23:50:00,
2013-01-13 17:01:00,-1.3,-7.6,30.51,NE,49,0.0,0.0,74,0.00,,,0.00,0,Wunderground v.1.15,2013-01-14 00:01:00,
2013-01-13 17:10:00,-2.2,-8.5,30.51,NE,49,0.0,0.0,74,0.00,,,0.00,0,Wunderground v.1.15,2013-01-14 00:10:00,
2013-01-13 17:30:00,-2.8,-8.8,30.52,NE,49,0.0,0.0,75,0.00,,,0.00,0,Wunderground v.1.15,2013-01-14 00:30:00,
2013-01-13 17:41:00,-3.6,-9.8,30.53,NE,49,0.0,0.0,74,0.00,,,0.00,0,Wunderground v.1.15,2013-01-14 00:41:00,
2013-01-13 18:00:00,-5.7,-12.4,30.54,NE,49,0.0,0.0,72,0.00,,,0.00,0,Wunderground v.1.15,2013-01-14 01:00:00,
2013-01-13 18:10:00,-6.9,-13.3,30.54,NE,49,0.0,0.0,73,0.00,,,0.00,0,Wunderground v.1.15,2013-01-14 01:10:00,
2013-01-13 18:40:00,-8.8,-14.9,30.55,NE,49,0.0,0.0,74,0.00,,,0.00,0,Wunderground v.1.15,2013-01-14 01:40:00,
2013-01-13 18:50:00,-9.3,-15.3,30.55,NE,49,1.0,2.0,74,0.00,,,0.00,0,Wunderground v.1.15,2013-01-14 01:50:00,
2013-01-13 19:10:00,-10.2,-16.2,30.55,NE,49,2.0,2.0,74,0.00,,,0.00,0,Wunderground v.1.15,2013-01-14 02:10:00,
2013-01-13 19:20:00,-10.7,-16.7,30.55,NE,49,1.0,1.0,74,0.00,,,0.00,0,Wunderground v.1.15,2013-01-14 02:20:00,
2013-01-13 19:30:00,-11.1,-17.1,30.55,NE,49,1.0,1.0,74,0.00,,,0.00,0,Wunderground v.1.15,2013-01-14 02:30:00,
2013-01-13 19:40:00,-11.1,-17.1,30.55,NE,49,1.0,1.0,74,0.00,,,0.00,0,Wunderground v.1.15,2013-01-14 02:40:00,
2013-01-13 19:50:00,-11.4,-17.4,30.56,NE,49,0.0,0.0,74,0.00,,,0.00,0,Wunderground v.1.15,2013-01-14 02:50:00,
2013-01-13 20:00:00,-11.9,-17.9,30.56,NE,49,1.0,2.0,74,0.00,,,0.00,0,Wunderground v.1.15,2013-01-14 03:00:00,
2013-01-13 20:10:00,-12.2,-18.2,30.56,NE,49,2.0,2.0,74,0.00,,,0.00,0,Wunderground v.1.15,2013-01-14 03:10:00,
2013-01-13 20:20:00,-12.4,-18.3,30.56,NE,49,2.0,3.0,74,0.00,,,0.00,0,Wunderground v.1.15,2013-01-14 03:20:00,
2013-01-13 20:30:00,-12.8,-18.7,30.56,NE,49,2.0,2.0,74,0.00,,,0.00,0,Wunderground v.1.15,2013-01-14 03:30:00,
2013-01-13 21:00:00,-13.3,-19.2,30.57,NE,49,1.0,1.0,74,0.00,,,0.00,0,Wunderground v.1.15,2013-01-14 04:00:00,
2013-01-13 21:30:00,-13.2,-18.9,30.56,NE,49,1.0,1.0,75,0.00,,,0.00,0,Wunderground v.1.15,2013-01-14 04:30:00,
2013-01-13 21:50:00,-13.5,-19.4,30.57,NE,49,0.0,0.0,74,0.00,,,0.00,0,Wunderground v.1.15,2013-01-14 04:50:00,
2013-01-13 22:10:00,-13.7,-19.3,30.57,NE,49,0.0,2.0,75,0.00,,,0.00,0,Wunderground v.1.15,2013-01-14 05:10:00,
2013-01-13 22:20:00,-14.3,-20.2,30.57,NE,49,0.0,0.0,74,0.00,,,0.00,0,Wunderground v.1.15,2013-01-14 05:20:00,
2013-01-13 22:31:00,-14.9,-20.8,30.58,NE,49,0.0,0.0,74,0.00,,,0.00,0,Wunderground v.1.15,2013-01-14 05:31:00,
2013-01-13 22:40:00,-14.9,-20.5,30.58,NE,49,1.0,1.0,75,0.00,,,0.00,0,Wunderground v.1.15,2013-01-14 05:40:00,
2013-01-13 22:50:00,-14.9,-20.5,30.58,NNW,338,1.0,2.0,75,0.00,,,0.00,0,Wunderground v.1.15,2013-01-14 05:50:00,
2013-01-13 23:20:00,-14.7,-20.3,30.59,NW,323,2.0,2.0,75,0.00,,,0.00,0,Wunderground v.1.15,2013-01-14 06:20:00,
2013-01-13 23:30:00,-14.7,-20.6,30.59,NW,323,2.0,2.0,74,0.00,,,0.00,0,Wunderground v.1.15,2013-01-14 06:30:00,
2013-01-13 23:50:00,-15.7,-21.5,30.60,NW,323,1.0,2.0,74,0.00,,,0.00,0,Wunderground v.1.15,2013-01-14 06:50:00,